createdAt,value
2016-08-14T00:00:14.848Z,85.72
2016-08-14T00:01:15.609Z,85.28
2016-08-14T00:02:15.600Z,86.11
2016-08-14T00:03:14.650Z,86.58
2016-08-14T00:04:15.089Z,86.11
2016-08-14T00:05:15.776Z,86.3
2016-08-14T00:06:14.824Z,86.88
2016-08-14T00:07:14.737Z,86.11
2016-08-14T00:08:15.185Z,86.11
2016-08-14T00:09:15.275Z,86.01
2016-08-14T00:10:15.110Z,86.88
2016-08-14T00:11:15.496Z,86.97
2016-08-14T00:12:15.522Z,87.35
2016-08-14T00:13:14.745Z,86.78
2016-08-14T00:14:14.809Z,86.78
2016-08-14T00:15:15.501Z,86.11
2016-08-14T00:16:14.859Z,86.01
2016-08-14T00:17:15.200Z,86.49
2016-08-14T00:18:14.672Z,85.15
2016-08-14T00:19:15.650Z,85.25
2016-08-14T00:20:15.906Z,85.53
2016-08-14T00:21:14.712Z,85.44
2016-08-14T00:22:16.904Z,85.72
2016-08-14T00:23:15.351Z,86.68
2016-08-14T00:24:17.110Z,86.01
2016-08-14T00:25:15.416Z,85.63
2016-08-14T00:26:15.953Z,86.4
2016-08-14T00:27:15.947Z,86.01
2016-08-14T00:28:16.644Z,86.3
2016-08-14T00:29:16.734Z,85.82
2016-08-14T00:30:15.013Z,86.01
2016-08-14T00:31:15.664Z,86.4
2016-08-14T00:32:15.545Z,86.4
2016-08-14T00:33:15.732Z,87.84
2016-08-14T00:34:16.583Z,87.79
2016-08-14T00:35:16.201Z,88.02
2016-08-14T00:36:15.809Z,88.46
2016-08-14T00:37:16.755Z,88.08
2016-08-14T00:38:16.584Z,87.93
2016-08-14T00:39:16.161Z,88.65
2016-08-14T00:40:16.663Z,88.27
2016-08-14T00:41:16.109Z,88.84
2016-08-14T00:42:15.507Z,89.23
2016-08-14T00:43:15.748Z,88.94
2016-08-14T00:44:15.855Z,88.84
2016-08-14T00:45:15.661Z,88.65
2016-08-14T00:46:16.546Z,89.61
2016-08-14T00:47:16.485Z,89.32
2016-08-14T00:48:16.913Z,88.94
2016-08-14T00:49:16.861Z,88.84
2016-08-14T00:50:16.650Z,88.6
2016-08-14T00:51:15.832Z,89.04
2016-08-14T00:52:16.420Z,89.13
2016-08-14T00:53:17.245Z,88.65
2016-08-14T00:54:16.789Z,88.46
2016-08-14T00:55:15.945Z,88.12
2016-08-14T00:56:16.440Z,87.84
2016-08-14T00:57:15.871Z,87.64
2016-08-14T00:58:17.157Z,87.84
2016-08-14T00:59:15.705Z,88.02
2016-08-14T01:00:16.853Z,87.84
2016-08-14T01:01:16.707Z,87.93
2016-08-14T01:02:16.499Z,88.6
2016-08-14T01:03:16.500Z,88.89
2016-08-14T01:04:16.692Z,89.51
2016-08-14T01:05:16.237Z,89.42
2016-08-14T01:06:16.970Z,89.51
2016-08-14T01:07:16.190Z,89.13
2016-08-14T01:08:16.975Z,89.32
2016-08-14T01:09:17.188Z,88.75
2016-08-14T01:10:16.613Z,89.42
2016-08-14T01:11:17.017Z,89.94
2016-08-14T01:12:17.103Z,89.9
2016-08-14T01:13:16.932Z,89.71
2016-08-14T01:14:18.078Z,90.19
2016-08-14T01:15:17.221Z,90.09
2016-08-14T01:16:17.001Z,89.61
2016-08-14T01:17:17.189Z,89.51
2016-08-14T01:18:17.988Z,89.42
2016-08-14T01:19:17.628Z,89.51
2016-08-14T01:20:16.863Z,89.61
2016-08-14T01:21:17.573Z,90.28
2016-08-14T01:22:16.825Z,90
2016-08-14T01:23:16.657Z,90.47
2016-08-14T01:24:17.274Z,90.19
2016-08-14T01:25:17.610Z,90.62
2016-08-14T01:26:17.057Z,90.33
2016-08-14T01:27:16.784Z,90.43
2016-08-14T01:28:17.424Z,90.57
2016-08-14T01:29:17.194Z,90.09
2016-08-14T01:30:16.877Z,89.8
2016-08-14T01:31:16.830Z,90.47
2016-08-14T01:32:16.975Z,89.9
2016-08-14T01:33:18.165Z,89.8
2016-08-14T01:34:16.992Z,89.8
2016-08-14T01:35:16.788Z,89.8
2016-08-14T01:36:16.995Z,89.8
2016-08-14T01:37:16.666Z,89.61
2016-08-14T01:38:18.150Z,89.71
2016-08-14T01:39:18.361Z,89.8
2016-08-14T01:40:18.103Z,89.51
2016-08-14T01:41:17.471Z,90
2016-08-14T01:42:17.521Z,89.42
2016-08-14T01:43:17.736Z,89.8
2016-08-14T01:44:18.189Z,89.42
2016-08-14T01:45:17.032Z,88.84
2016-08-14T01:46:17.436Z,89.51
2016-08-14T01:47:17.265Z,89.71
2016-08-14T01:48:17.992Z,90
2016-08-14T01:49:17.291Z,89.8
2016-08-14T01:50:17.280Z,89.23
2016-08-14T01:51:17.235Z,89.51
2016-08-14T01:52:17.397Z,89.95
2016-08-14T01:53:17.300Z,90.81
2016-08-14T01:54:18.805Z,90.23
2016-08-14T01:55:17.705Z,90.72
2016-08-14T01:56:17.992Z,90.72
2016-08-14T01:57:17.290Z,90.33
2016-08-14T01:58:18.785Z,90.91
2016-08-14T01:59:18.356Z,90.91
2016-08-14T02:00:18.234Z,90.72
2016-08-14T02:01:17.561Z,91.1
2016-08-14T02:02:19.088Z,90.91
2016-08-14T02:03:18.270Z,91.1
2016-08-14T02:04:17.708Z,90.91
2016-08-14T02:05:17.509Z,91.1
2016-08-14T02:06:18.590Z,90.91
2016-08-14T02:07:18.139Z,91.19
2016-08-14T02:08:17.460Z,91.77
2016-08-14T02:09:17.958Z,91.82
2016-08-14T02:10:18.032Z,92.01
2016-08-14T02:11:17.620Z,92.01
2016-08-14T02:12:18.369Z,91.72
2016-08-14T02:13:18.971Z,91.72
2016-08-14T02:14:18.130Z,91.77
2016-08-14T02:15:18.072Z,91.44
2016-08-14T02:16:18.020Z,91.67
2016-08-14T02:17:17.887Z,91.77
2016-08-14T02:18:17.790Z,91.25
2016-08-14T02:19:18.056Z,91.44
2016-08-14T02:20:18.175Z,91.72
2016-08-14T02:21:18.035Z,91.92
2016-08-14T02:22:18.949Z,91.92
2016-08-14T02:23:18.084Z,91.92
2016-08-14T02:24:19.511Z,91.82
2016-08-14T02:25:18.457Z,91.53
2016-08-14T02:26:18.812Z,92.11
2016-08-14T02:27:18.427Z,91.34
2016-08-14T02:28:18.295Z,91.44
2016-08-14T02:29:19.004Z,91.82
2016-08-14T02:30:18.502Z,92.01
2016-08-14T02:31:18.989Z,92.44
2016-08-14T02:32:19.009Z,92.63
2016-08-14T02:33:18.993Z,92.63
2016-08-14T02:34:18.405Z,92.73
2016-08-14T02:35:18.819Z,92.73
2016-08-14T02:36:18.342Z,92.25
2016-08-14T02:37:18.579Z,92.44
2016-08-14T02:38:20.120Z,91.97
2016-08-14T02:39:18.559Z,92.25
2016-08-14T02:40:19.442Z,92.44
2016-08-14T02:41:18.375Z,92.25
2016-08-14T02:42:18.719Z,91.68
2016-08-14T02:43:18.566Z,91.49
2016-08-14T02:44:19.642Z,91.58
2016-08-14T02:45:20.013Z,91.49
2016-08-14T02:46:20.151Z,91.39
2016-08-14T02:47:20.074Z,91.77
2016-08-14T02:48:18.757Z,91.11
2016-08-14T02:49:20.965Z,92.54
2016-08-14T02:50:19.565Z,91.68
2016-08-14T02:51:20.064Z,92.16
2016-08-14T02:52:18.929Z,92.25
2016-08-14T02:53:19.229Z,91.77
2016-08-14T02:54:19.463Z,91.68
2016-08-14T02:55:19.995Z,91.2
2016-08-14T02:56:19.975Z,91.68
2016-08-14T02:57:19.165Z,92.54
2016-08-14T02:58:20.937Z,93.07
2016-08-14T02:59:20.018Z,93.35
2016-08-14T03:00:19.330Z,93.16
2016-08-14T03:01:19.278Z,93.16
2016-08-14T03:02:19.052Z,92.59
2016-08-14T03:03:19.134Z,92.02
2016-08-14T03:04:20.248Z,91.53
2016-08-14T03:05:20.171Z,91.73
2016-08-14T03:06:20.316Z,91.25
2016-08-14T03:07:19.680Z,91.3
2016-08-14T03:08:19.755Z,91.44
2016-08-14T03:09:20.552Z,92.11
2016-08-14T03:10:19.468Z,93.45
2016-08-14T03:11:19.684Z,93.69
2016-08-14T03:12:19.648Z,93.4
2016-08-14T03:13:19.906Z,92.97
2016-08-14T03:14:19.612Z,92.59
2016-08-14T03:15:19.171Z,93.07
2016-08-14T03:16:19.328Z,93.5
2016-08-14T03:17:19.826Z,93.4
2016-08-14T03:18:19.362Z,93.12
2016-08-14T03:19:19.719Z,92.88
2016-08-14T03:20:19.578Z,93.02
2016-08-14T03:21:20.655Z,92.25
2016-08-14T03:22:20.854Z,92.21
2016-08-14T03:23:19.699Z,92.49
2016-08-14T03:24:19.392Z,92.4
2016-08-14T03:25:20.130Z,92.3
2016-08-14T03:26:20.813Z,93.45
2016-08-14T03:27:19.781Z,93.4
2016-08-14T03:28:19.370Z,93.6
2016-08-14T03:29:19.937Z,93.12
2016-08-14T03:30:19.633Z,93.02
2016-08-14T03:31:20.174Z,93.02
2016-08-14T03:32:20.384Z,93.12
2016-08-14T03:33:20.236Z,93.31
2016-08-14T03:34:19.732Z,93.79
2016-08-14T03:35:19.544Z,93.4
2016-08-14T03:36:20.263Z,94.46
2016-08-14T03:37:19.787Z,94.36
2016-08-14T03:38:20.420Z,94.36
2016-08-14T03:39:19.839Z,93.12
2016-08-14T03:40:19.786Z,93.21
2016-08-14T03:41:20.036Z,93.02
2016-08-14T03:42:19.816Z,93.4
2016-08-14T03:43:20.590Z,92.35
2016-08-14T03:44:19.986Z,92.88
2016-08-14T03:45:20.322Z,92.07
2016-08-14T03:46:21.020Z,92.49
2016-08-14T03:47:20.623Z,92.3
2016-08-14T03:48:20.188Z,92.49
2016-08-14T03:49:20.123Z,92.21
2016-08-14T03:50:20.579Z,91.92
2016-08-14T03:51:21.516Z,92.11
2016-08-14T03:52:20.161Z,92.49
2016-08-14T03:53:20.159Z,93.21
2016-08-14T03:54:21.521Z,93.6
2016-08-14T03:55:20.709Z,93.69
2016-08-14T03:56:20.403Z,93.6
2016-08-14T03:57:20.464Z,94.26
2016-08-14T03:58:20.601Z,93.69
2016-08-14T03:59:20.972Z,92.83
2016-08-14T04:00:21.192Z,93.26
2016-08-14T04:01:20.786Z,92.88
2016-08-14T04:02:20.843Z,92.3
2016-08-14T04:03:20.898Z,93.35
2016-08-14T04:04:20.451Z,93.02
2016-08-14T04:05:20.670Z,93.6
2016-08-14T04:06:20.778Z,93.4
2016-08-14T04:07:20.646Z,93.26
2016-08-14T04:08:20.365Z,93.02
2016-08-14T04:09:21.291Z,93.93
2016-08-14T04:10:21.112Z,93.07
2016-08-14T04:11:21.847Z,92.78
2016-08-14T04:12:21.229Z,93.07
2016-08-14T04:13:21.619Z,93.64
2016-08-14T04:14:20.911Z,93.07
2016-08-14T04:15:20.838Z,93.16
2016-08-14T04:16:20.569Z,92.49
2016-08-14T04:17:21.174Z,92.4
2016-08-14T04:18:20.942Z,92.02
2016-08-14T04:19:20.962Z,92.02
2016-08-14T04:20:21.535Z,92.21
2016-08-14T04:21:21.074Z,93.35
2016-08-14T04:22:22.130Z,93.74
2016-08-14T04:23:20.917Z,93.26
2016-08-14T04:24:20.851Z,93.07
2016-08-14T04:25:21.235Z,93.07
2016-08-14T04:26:21.492Z,94.12
2016-08-14T04:27:21.296Z,94.26
2016-08-14T04:28:21.115Z,94.26
2016-08-14T04:29:21.706Z,95.12
2016-08-14T04:30:21.216Z,94.65
2016-08-14T04:31:21.277Z,93.79
2016-08-14T04:32:20.825Z,93.45
2016-08-14T04:33:21.743Z,93.26
2016-08-14T04:34:22.086Z,93.45
2016-08-14T04:35:21.178Z,93.07
2016-08-14T04:36:21.089Z,93.26
2016-08-14T04:37:21.175Z,93.35
2016-08-14T04:38:21.952Z,93.64
2016-08-14T04:39:22.583Z,93.35
2016-08-14T04:40:21.630Z,93.84
2016-08-14T04:41:21.320Z,93.64
2016-08-14T04:42:21.444Z,93.26
2016-08-14T04:43:21.324Z,93.64
2016-08-14T04:44:22.217Z,93.45
2016-08-14T04:45:21.664Z,92.88
2016-08-14T04:46:22.382Z,93.26
2016-08-14T04:47:22.068Z,93.45
2016-08-14T04:48:22.394Z,93.16
2016-08-14T04:49:22.354Z,93.26
2016-08-14T04:50:22.710Z,94.12
2016-08-14T04:51:22.364Z,93.45
2016-08-14T04:52:21.737Z,93.26
2016-08-14T04:53:21.706Z,93.16
2016-08-14T04:54:22.705Z,93.26
2016-08-14T04:55:21.844Z,92.78
2016-08-14T04:56:22.405Z,93.07
2016-08-14T04:57:22.500Z,92.97
2016-08-14T04:58:22.173Z,93.26
2016-08-14T04:59:22.058Z,93.35
2016-08-14T05:00:21.977Z,93.26
2016-08-14T05:01:22.329Z,93.93
2016-08-14T05:02:21.828Z,94.7
2016-08-14T05:03:22.038Z,93.84
2016-08-14T05:04:23.033Z,93.64
2016-08-14T05:05:23.075Z,93.35
2016-08-14T05:06:22.308Z,93.35
2016-08-14T05:07:22.257Z,93.07
2016-08-14T05:08:22.936Z,93.35
2016-08-14T05:09:22.234Z,93.5
2016-08-14T05:10:22.663Z,93.69
2016-08-14T05:11:23.236Z,94.41
2016-08-14T05:12:22.987Z,94.7
2016-08-14T05:13:22.363Z,94.21
2016-08-14T05:14:23.047Z,94.5
2016-08-14T05:15:22.802Z,94.36
2016-08-14T05:16:22.201Z,94.17
2016-08-14T05:17:22.477Z,94.17
2016-08-14T05:18:22.308Z,94.07
2016-08-14T05:19:22.192Z,93.12
2016-08-14T05:20:22.188Z,93.02
2016-08-14T05:21:22.383Z,93.21
2016-08-14T05:22:23.431Z,93.69
2016-08-14T05:23:22.718Z,93.26
2016-08-14T05:24:22.372Z,92.87
2016-08-14T05:25:22.935Z,92.87
2016-08-14T05:26:23.385Z,93.54
2016-08-14T05:27:22.568Z,92.87
2016-08-14T05:28:22.821Z,93.26
2016-08-14T05:29:22.192Z,93.26
2016-08-14T05:30:22.434Z,93.16
2016-08-14T05:31:23.205Z,94.02
2016-08-14T05:32:23.664Z,93.74
2016-08-14T05:33:23.623Z,93.59
2016-08-14T05:34:23.088Z,93.5
2016-08-14T05:35:22.960Z,94.07
2016-08-14T05:36:23.747Z,94.36
2016-08-14T05:37:22.668Z,94.36
2016-08-14T05:38:23.390Z,93.98
2016-08-14T05:39:22.637Z,93.79
2016-08-14T05:40:22.740Z,93.93
2016-08-14T05:41:22.687Z,93.45
2016-08-14T05:42:22.890Z,93.93
2016-08-14T05:43:22.661Z,93.16
2016-08-14T05:44:23.641Z,92.68
2016-08-14T05:45:22.896Z,92.3
2016-08-14T05:46:23.588Z,92.11
2016-08-14T05:47:23.114Z,91.72
2016-08-14T05:48:23.112Z,92.06
2016-08-14T05:49:23.061Z,91.58
2016-08-14T05:50:23.314Z,91.77
2016-08-14T05:51:23.975Z,92.15
2016-08-14T05:52:24.349Z,92.06
2016-08-14T05:53:22.988Z,92.21
2016-08-14T05:54:23.096Z,92.35
2016-08-14T05:55:23.373Z,92.44
2016-08-14T05:56:23.293Z,91.77
2016-08-14T05:57:23.594Z,91.58
2016-08-14T05:58:24.093Z,91.49
2016-08-14T05:59:23.893Z,91.58
2016-08-14T06:00:23.711Z,91.77
2016-08-14T06:01:24.538Z,92.06
2016-08-14T06:02:24.489Z,91.29
2016-08-14T06:03:23.326Z,91.58
2016-08-14T06:04:23.317Z,91.19
2016-08-14T06:05:23.902Z,91.19
2016-08-14T06:06:24.043Z,90.19
2016-08-14T06:07:23.321Z,89.8
2016-08-14T06:08:23.363Z,90.57
2016-08-14T06:09:23.991Z,88.79
2016-08-14T06:10:24.030Z,88.22
2016-08-14T06:11:23.734Z,87.84
2016-08-14T06:12:25.382Z,87.45
2016-08-14T06:13:23.626Z,86.92
2016-08-14T06:14:24.781Z,87.4
2016-08-14T06:15:24.359Z,87.16
2016-08-14T06:16:23.712Z,86.34
2016-08-14T06:17:25.153Z,87.01
2016-08-14T06:18:24.410Z,88.17
2016-08-14T06:19:24.360Z,87.45
2016-08-14T06:20:24.209Z,88.22
2016-08-14T06:21:24.925Z,88.79
2016-08-14T06:22:24.210Z,88.79
2016-08-14T06:23:23.693Z,89.18
2016-08-14T06:24:23.709Z,89.37
2016-08-14T06:25:24.273Z,89.13
2016-08-14T06:26:25.370Z,89.08
2016-08-14T06:27:23.987Z,89.37
2016-08-14T06:28:23.934Z,88.98
2016-08-14T06:29:25.000Z,88.31
2016-08-14T06:30:24.713Z,88.51
2016-08-14T06:31:24.041Z,88.51
2016-08-14T06:32:23.993Z,88.6
2016-08-14T06:33:24.071Z,88.41
2016-08-14T06:34:24.451Z,88.02
2016-08-14T06:35:24.212Z,87.26
2016-08-14T06:36:25.509Z,86.92
2016-08-14T06:37:24.206Z,86.82
2016-08-14T06:38:24.271Z,87.3
2016-08-14T06:39:26.002Z,87.68
2016-08-14T06:40:25.689Z,88.07
2016-08-14T06:41:24.966Z,88.02
2016-08-14T06:42:24.656Z,87.49
2016-08-14T06:43:25.599Z,86.34
2016-08-14T06:44:25.205Z,85.67
2016-08-14T06:45:24.425Z,86.25
2016-08-14T06:46:25.354Z,86.15
2016-08-14T06:47:24.999Z,86.82
2016-08-14T06:48:25.438Z,86.82
2016-08-14T06:49:25.082Z,86.97
2016-08-14T06:50:24.434Z,87.93
2016-08-14T06:51:24.988Z,86.97
2016-08-14T06:52:24.945Z,86.25
2016-08-14T06:53:24.649Z,87.88
2016-08-14T06:54:26.060Z,86.82
2016-08-14T06:55:24.447Z,86.97
2016-08-14T06:56:26.014Z,86.82
2016-08-14T06:57:24.685Z,86.63
2016-08-14T06:58:24.902Z,86.63
2016-08-14T06:59:24.769Z,87.49
2016-08-14T07:00:24.563Z,87.59
2016-08-14T07:01:25.703Z,88.89
2016-08-14T07:02:25.453Z,88.7
2016-08-14T07:03:24.914Z,87.88
2016-08-14T07:04:26.105Z,88.17
2016-08-14T07:05:25.128Z,87.78
2016-08-14T07:06:25.179Z,88.26
2016-08-14T07:07:25.398Z,88.41
2016-08-14T07:08:24.693Z,88.6
2016-08-14T07:09:25.308Z,88.7
2016-08-14T07:10:25.498Z,88.89
2016-08-14T07:11:25.271Z,88.41
2016-08-14T07:12:26.422Z,88.41
2016-08-14T07:13:25.652Z,88.93
2016-08-14T07:14:25.417Z,88.93
2016-08-14T07:15:25.156Z,88.26
2016-08-14T07:16:25.315Z,87.88
2016-08-14T07:17:25.160Z,87.98
2016-08-14T07:18:26.487Z,87.21
2016-08-14T07:19:25.998Z,87.98
2016-08-14T07:20:25.148Z,87.98
2016-08-14T07:21:26.572Z,88.45
2016-08-14T07:22:25.266Z,88.35
2016-08-14T07:23:25.636Z,88.65
2016-08-14T07:24:25.478Z,88.07
2016-08-14T07:25:26.856Z,89.12
2016-08-14T07:26:26.138Z,88.74
2016-08-14T07:27:25.677Z,88.93
2016-08-14T07:28:26.834Z,88.17
2016-08-14T07:29:25.408Z,88.17
2016-08-14T07:30:26.071Z,88.74
2016-08-14T07:31:25.908Z,89.41
2016-08-14T07:32:27.199Z,89.12
2016-08-14T07:33:26.744Z,90.04
2016-08-14T07:34:25.659Z,89.65
2016-08-14T07:35:25.634Z,90.52
2016-08-14T07:36:26.531Z,89.65
2016-08-14T07:37:26.787Z,89.56
2016-08-14T07:38:26.914Z,89.75
2016-08-14T07:39:26.895Z,89.75
2016-08-14T07:40:26.172Z,89.37
2016-08-14T07:41:26.979Z,89.61
2016-08-14T07:42:25.567Z,89.65
2016-08-14T07:43:25.988Z,89.27
2016-08-14T07:44:25.673Z,88.7
2016-08-14T07:45:25.656Z,88.93
2016-08-14T07:46:26.106Z,88.51
2016-08-14T07:47:25.968Z,87.88
2016-08-14T07:48:25.934Z,86.92
2016-08-14T07:49:25.782Z,86.72
2016-08-14T07:50:25.979Z,86.34
2016-08-14T07:51:26.883Z,85.96
2016-08-14T07:52:26.996Z,86.44
2016-08-14T07:53:27.899Z,84.91
2016-08-14T07:54:26.190Z,84.33
2016-08-14T07:55:26.945Z,83.7
2016-08-14T07:56:26.427Z,83.74
2016-08-14T07:57:27.192Z,83.6
2016-08-14T07:58:26.953Z,84.08
2016-08-14T07:59:27.040Z,83.41
2016-08-14T08:00:27.360Z,83.51
2016-08-14T08:01:26.665Z,83.07
2016-08-14T08:02:27.148Z,81.96
2016-08-14T08:03:26.739Z,81.09
2016-08-14T08:04:26.946Z,81.34
2016-08-14T08:05:27.134Z,81.53
2016-08-14T08:06:26.916Z,82.45
2016-08-14T08:07:26.789Z,81.34
2016-08-14T08:08:27.627Z,81.43
2016-08-14T08:09:27.883Z,81.05
2016-08-14T08:10:27.229Z,80.57
2016-08-14T08:11:27.114Z,81.15
2016-08-14T08:12:26.629Z,81.92
2016-08-14T08:13:26.833Z,81.43
2016-08-14T08:14:26.790Z,81.49
2016-08-14T08:15:27.616Z,82.01
2016-08-14T08:16:27.122Z,80.96
2016-08-14T08:17:27.358Z,81.09
2016-08-14T08:18:26.778Z,81.92
2016-08-14T08:19:27.153Z,81.97
2016-08-14T08:20:27.189Z,81.97
2016-08-14T08:21:27.149Z,81.78
2016-08-14T08:22:26.897Z,82.35
2016-08-14T08:23:27.006Z,81.87
2016-08-14T08:24:27.121Z,82.2
2016-08-14T08:25:26.789Z,81.15
2016-08-14T08:26:26.876Z,81.05
2016-08-14T08:27:27.471Z,80.19
2016-08-14T08:28:27.379Z,80.28
2016-08-14T08:29:27.645Z,81.24
2016-08-14T08:30:27.892Z,80.28
2016-08-14T08:31:27.748Z,79.8
2016-08-14T08:32:27.070Z,79.75
2016-08-14T08:33:27.628Z,78.88
2016-08-14T08:34:28.230Z,78.63
2016-08-14T08:35:27.187Z,75.63
2016-08-14T08:36:27.593Z,74.41
2016-08-14T08:37:27.627Z,73.68
2016-08-14T08:38:28.181Z,73.68
2016-08-14T08:39:27.168Z,73.68
2016-08-14T08:40:28.931Z,75.34
2016-08-14T08:41:27.656Z,76.46
2016-08-14T08:42:27.582Z,76.84
2016-08-14T08:43:28.553Z,77.38
2016-08-14T08:44:27.945Z,76.9
2016-08-14T08:45:27.612Z,77.19
2016-08-14T08:46:27.875Z,76.52
2016-08-14T08:47:27.873Z,77.48
2016-08-14T08:48:27.771Z,77.76
2016-08-14T08:49:28.429Z,77.29
2016-08-14T08:50:28.421Z,77.06
2016-08-14T08:51:28.451Z,76.52
2016-08-14T08:52:27.969Z,76.71
2016-08-14T08:53:28.492Z,76.52
2016-08-14T08:54:27.959Z,76.81
2016-08-14T08:55:27.814Z,76.81
2016-08-14T08:56:28.197Z,77
2016-08-14T08:57:28.229Z,75.65
2016-08-14T08:58:27.921Z,75.84
2016-08-14T08:59:28.460Z,76.71
2016-08-14T09:00:28.361Z,76.23
2016-08-14T09:01:27.946Z,74.3
2016-08-14T09:02:27.738Z,73.77
2016-08-14T09:03:29.175Z,73.77
2016-08-14T09:04:28.923Z,72.74
2016-08-14T09:05:28.183Z,72.07
2016-08-14T09:06:29.879Z,70.7
2016-08-14T09:07:28.072Z,71.66
2016-08-14T09:08:28.393Z,71.4
2016-08-14T09:09:28.130Z,71.3
2016-08-14T09:10:28.251Z,71.01
2016-08-14T09:11:28.326Z,70.98
2016-08-14T09:12:28.627Z,70.66
2016-08-14T09:13:28.596Z,71.37
2016-08-14T09:14:28.576Z,70.82
2016-08-14T09:15:29.252Z,70.15
2016-08-14T09:16:28.527Z,69.7
2016-08-14T09:17:28.534Z,70.09
2016-08-14T09:18:29.302Z,70.28
2016-08-14T09:19:28.203Z,70.47
2016-08-14T09:20:30.097Z,70.6
2016-08-14T09:21:29.192Z,69.35
2016-08-14T09:22:28.906Z,68.99
2016-08-14T09:23:28.947Z,68.68
2016-08-14T09:24:28.721Z,68.68
2016-08-14T09:25:29.537Z,69.99
2016-08-14T09:26:28.696Z,69.85
2016-08-14T09:27:29.101Z,69.12
2016-08-14T09:28:29.073Z,67.52
2016-08-14T09:29:29.449Z,67.55
2016-08-14T09:30:28.871Z,68.48
2016-08-14T09:31:29.090Z,68.8
2016-08-14T09:32:28.868Z,69.09
2016-08-14T09:33:30.033Z,69.31
2016-08-14T09:34:29.347Z,69.7
2016-08-14T09:35:30.341Z,68.44
2016-08-14T09:36:29.324Z,68.54
2016-08-14T09:37:30.509Z,69.18
2016-08-14T09:38:29.802Z,68.99
2016-08-14T09:39:29.330Z,68.44
2016-08-14T09:40:29.393Z,68.35
2016-08-14T09:41:29.944Z,68.84
2016-08-14T09:42:29.472Z,67.55
2016-08-14T09:43:30.064Z,68.64
2016-08-14T09:44:29.073Z,67.87
2016-08-14T09:45:29.286Z,67.23
2016-08-14T09:46:30.286Z,66.46
2016-08-14T09:47:30.257Z,66.49
2016-08-14T09:48:30.021Z,66.49
2016-08-14T09:49:30.433Z,65.33
2016-08-14T09:50:30.105Z,64.15
2016-08-14T09:51:30.728Z,63.18
2016-08-14T09:52:29.885Z,62.41
2016-08-14T09:53:30.250Z,61.93
2016-08-14T09:54:29.697Z,62.63
2016-08-14T09:55:30.552Z,64.79
2016-08-14T09:56:30.817Z,65.63
2016-08-14T09:57:31.001Z,66.2
2016-08-14T09:58:30.118Z,64.28
2016-08-14T09:59:29.721Z,63.12
2016-08-14T10:00:30.758Z,62.51
2016-08-14T10:01:30.544Z,63.18
2016-08-14T10:02:29.904Z,62.7
2016-08-14T10:03:29.677Z,62.32
2016-08-14T10:04:31.887Z,62.03
2016-08-14T10:05:30.102Z,61.96
2016-08-14T10:06:30.931Z,61.77
2016-08-14T10:07:30.045Z,61.07
2016-08-14T10:08:30.098Z,61.74
2016-08-14T10:09:31.022Z,61.65
2016-08-14T10:10:30.813Z,61.38
2016-08-14T10:11:30.269Z,61.65
2016-08-14T10:12:31.960Z,61.25
2016-08-14T10:13:30.427Z,61.07
2016-08-14T10:14:30.620Z,61.45
2016-08-14T10:15:31.936Z,62.03
2016-08-14T10:16:31.020Z,63.28
2016-08-14T10:17:30.527Z,62.8
2016-08-14T10:18:31.043Z,62.51
2016-08-14T10:19:30.386Z,62.41
2016-08-14T10:20:31.258Z,62.32
2016-08-14T10:21:30.574Z,63.28
2016-08-14T10:22:32.094Z,62.51
2016-08-14T10:23:30.723Z,62.63
2016-08-14T10:24:30.622Z,61.68
2016-08-14T10:25:30.899Z,61.29
2016-08-14T10:26:31.142Z,60.55
2016-08-14T10:27:30.514Z,59.68
2016-08-14T10:28:30.627Z,60.64
2016-08-14T10:29:31.361Z,59.1
2016-08-14T10:30:30.985Z,60.64
2016-08-14T10:31:32.804Z,60.61
2016-08-14T10:32:31.090Z,60.2
2016-08-14T10:33:30.834Z,59.68
2016-08-14T10:34:30.927Z,58.84
2016-08-14T10:35:32.401Z,59.65
2016-08-14T10:36:31.816Z,60.55
2016-08-14T10:37:31.228Z,57.71
2016-08-14T10:38:30.993Z,57.85
2016-08-14T10:39:31.113Z,58.52
2016-08-14T10:40:31.958Z,58.4
2016-08-14T10:41:31.375Z,58.4
2016-08-14T10:42:32.364Z,58.78
2016-08-14T10:43:31.294Z,59.17
2016-08-14T10:44:32.871Z,58.2
2016-08-14T10:45:32.122Z,58.11
2016-08-14T10:46:32.243Z,57.82
2016-08-14T10:47:32.491Z,57.62
2016-08-14T10:48:32.427Z,58.23
2016-08-14T10:49:32.198Z,55.66
2016-08-14T10:50:31.860Z,55.18
2016-08-14T10:51:32.336Z,52.95
2016-08-14T10:52:31.452Z,52.09
2016-08-14T10:53:32.350Z,52.35
2016-08-14T10:54:31.753Z,52.73
2016-08-14T10:55:32.244Z,52.73
2016-08-14T10:56:32.354Z,52.71
2016-08-14T10:57:32.074Z,52.06
2016-08-14T10:58:32.174Z,53.03
2016-08-14T10:59:32.319Z,51.87
2016-08-14T11:00:31.521Z,50.64
2016-08-14T11:01:32.073Z,52.45
2016-08-14T11:02:32.479Z,49.94
2016-08-14T11:03:32.234Z,44.97
2016-08-14T11:04:33.580Z,42.85
2016-08-14T11:05:33.129Z,44.68
2016-08-14T11:06:32.947Z,45.17
2016-08-14T11:07:32.093Z,45.75
2016-08-14T11:08:32.180Z,45.28
2016-08-14T11:09:32.165Z,44.82
2016-08-14T11:10:32.527Z,45.96
2016-08-14T11:11:33.243Z,45
2016-08-14T11:12:32.755Z,47.58
2016-08-14T11:13:32.237Z,47.67
2016-08-14T11:14:32.516Z,47.48
2016-08-14T11:15:32.699Z,47.55
2016-08-14T11:16:32.618Z,48.23
2016-08-14T11:17:33.582Z,47.19
2016-08-14T11:18:32.217Z,46.64
2016-08-14T11:19:33.689Z,45.96
2016-08-14T11:20:32.295Z,46.95
2016-08-14T11:21:32.320Z,46.9
2016-08-14T11:22:34.033Z,46.61
2016-08-14T11:23:33.478Z,45.48
2016-08-14T11:24:33.312Z,44.48
2016-08-14T11:25:32.881Z,45.76
2016-08-14T11:26:32.392Z,46.27
2016-08-14T11:27:33.224Z,44.63
2016-08-14T11:28:32.623Z,43.13
2016-08-14T11:29:32.868Z,41.91
2016-08-14T11:30:33.309Z,43.32
2016-08-14T11:31:32.915Z,43.23
2016-08-14T11:32:33.857Z,42.35
2016-08-14T11:33:33.441Z,38.91
2016-08-14T11:34:33.538Z,40.09
2016-08-14T11:35:32.843Z,39.24
2016-08-14T11:36:33.162Z,40.15
2016-08-14T11:37:33.836Z,40.19
2016-08-14T11:38:33.133Z,43.3
2016-08-14T11:39:33.197Z,42.19
2016-08-14T11:40:33.636Z,41.44
2016-08-14T11:41:33.590Z,42.62
2016-08-14T11:42:32.925Z,41.46
2016-08-14T11:43:33.442Z,40.61
2016-08-14T11:44:33.671Z,41.39
2016-08-14T11:45:33.352Z,39.97
2016-08-14T11:46:33.343Z,40.17
2016-08-14T11:47:34.665Z,40.38
2016-08-14T11:48:33.928Z,39.51
2016-08-14T11:49:33.580Z,40.33
2016-08-14T11:50:33.622Z,40.4
2016-08-14T11:51:34.414Z,39.7
2016-08-14T11:52:33.845Z,39.78
2016-08-14T11:53:34.378Z,39.22
2016-08-14T11:54:33.647Z,41.19
2016-08-14T11:55:34.706Z,41.29
2016-08-14T11:56:34.376Z,41.39
2016-08-14T11:57:33.718Z,40.28
2016-08-14T11:58:33.779Z,42
2016-08-14T11:59:34.208Z,42.91
2016-08-14T12:00:34.226Z,42.66
2016-08-14T12:01:33.941Z,44.38
2016-08-14T12:02:35.325Z,45.16
2016-08-14T12:03:34.881Z,46.22
2016-08-14T12:04:35.731Z,45.93
2016-08-14T12:05:35.257Z,45.68
2016-08-14T12:06:34.700Z,47.55
2016-08-14T12:07:34.869Z,49.24
2016-08-14T12:08:35.636Z,46.9
2016-08-14T12:09:34.639Z,46.83
2016-08-14T12:10:35.574Z,45.91
2016-08-14T12:11:34.877Z,46.3
2016-08-14T12:12:34.664Z,47.74
2016-08-14T12:13:35.453Z,48.95
2016-08-14T12:14:34.765Z,48.76
2016-08-14T12:15:34.554Z,49.32
2016-08-14T12:16:35.293Z,49.51
2016-08-14T12:17:35.986Z,48.74
2016-08-14T12:18:34.421Z,48.74
2016-08-14T12:19:35.292Z,48.25
2016-08-14T12:20:35.435Z,49.34
2016-08-14T12:21:35.242Z,47.7
2016-08-14T12:22:35.026Z,48.88
2016-08-14T12:23:35.494Z,47.12
2016-08-14T12:24:34.775Z,48.28
2016-08-14T12:25:34.495Z,47.91
2016-08-14T12:26:35.009Z,48.21
2016-08-14T12:27:35.433Z,47.81
2016-08-14T12:28:36.211Z,47.72
2016-08-14T12:29:36.992Z,46
2016-08-14T12:30:35.224Z,44.34
2016-08-14T12:31:35.891Z,44.26
2016-08-14T12:32:35.850Z,43.8
2016-08-14T12:33:34.983Z,43.34
2016-08-14T12:34:35.889Z,41.11
2016-08-14T12:35:36.013Z,41.99
2016-08-14T12:36:36.094Z,41.5
2016-08-14T12:37:35.258Z,40.59
2016-08-14T12:38:36.344Z,41.31
2016-08-14T12:39:35.390Z,41.02
2016-08-14T12:40:35.381Z,41.42
2016-08-14T12:41:37.066Z,42.59
2016-08-14T12:42:36.313Z,44.04
2016-08-14T12:43:35.947Z,43.17
2016-08-14T12:44:35.396Z,42.14
2016-08-14T12:45:35.507Z,43.19
2016-08-14T12:46:36.012Z,43.65
2016-08-14T12:47:36.217Z,40.65
2016-08-14T12:48:36.759Z,40.19
2016-08-14T12:49:36.253Z,38.19
2016-08-14T12:50:36.024Z,39.97
2016-08-14T12:51:36.241Z,40.73
2016-08-14T12:52:36.294Z,39.34
2016-08-14T12:53:36.824Z,39.65
2016-08-14T12:54:37.325Z,40.19
2016-08-14T12:55:37.224Z,40.15
2016-08-14T12:56:36.252Z,40.92